ADDS METAR Data INFO
IDs: Format: Raw Decoded Include TAF

Data at: 1502 UTC 11 Dec 2017

KPZQ 111455Z AUTO 20007KT 10SM OVC028 M08/M12 A2999 RMK AO2 T10801120
KPZQ 111435Z AUTO 20006KT 10SM OVC028 M08/M12 A2999 RMK AO2 T10811120
KPZQ 111415Z AUTO 20005KT 10SM OVC026 M08/M12 A2999 RMK AO2 T10841120
KPZQ 111355Z AUTO 20008KT 10SM OVC026 M08/M12 A2998 RMK AO2 T10851120
KPZQ 111335Z AUTO 21006KT 10SM OVC026 M09/M12 A2998 RMK AO2 T10861120
KPZQ 111315Z AUTO 20005KT 10SM OVC030 M09/M12 A2998 RMK AO2 T10871120
KPZQ 111255Z AUTO 20004KT 10SM OVC030 M09/M12 A2998 RMK AO2 T10871120
KPZQ 111235Z AUTO 20003KT 10SM OVC030 M09/M12 A2998 RMK AO2 T10871120
KPZQ 111215Z AUTO 20003KT 10SM OVC030 M09/M12 A2998 RMK AO2 T10861117
KPZQ 111155Z AUTO 17003KT 10SM OVC030 M09/M12 A2999 RMK AO2 T10921116 11085 21093
KPZQ 111135Z AUTO 00000KT 10SM OVC030 M09/M12 A2999 RMK AO2 T10861119
KPZQ 111115Z AUTO 00000KT 10SM OVC028 M09/M12 A2999 RMK AO2 T10891116
KPZQ 111055Z AUTO 00000KT 10SM OVC028 M09/M11 A2997 RMK AO2 T10881113
KPZQ 111035Z AUTO 00000KT 10SM OVC028 M09/M11 A2998 RMK AO2 T10881111
KPZQ 111015Z AUTO 00000KT 7SM -SN SCT021 OVC028 M09/M11 A2999 RMK AO2 T10871110
KPZQ 110955Z AUTO 00000KT 3SM -SN OVC023 M09/M11 A2999 RMK AO2 T10861107
KPZQ 110935Z AUTO 26003KT 4SM -SN OVC021 M09/M11 A3000 RMK AO2 T10871110
KPZQ 110915Z AUTO 26004KT 5SM -SN OVC021 M09/M12 A3000 RMK AO2 T10861116
KPZQ 110855Z AUTO 27005KT 4SM -SN OVC021 M08/M12 A3001 RMK AO2 T10851120
KPZQ 110835Z AUTO 27005KT 10SM -SN OVC023 M08/M12 A3001 RMK AO2 T10851125
KPZQ 110815Z AUTO 27004KT 7SM -SN OVC023 M08/M12 A3002 RMK AO2 T10851123
KPZQ 110755Z AUTO 27004KT 5SM -SN SCT009 SCT015 OVC021 M09/M12 A3002 RMK AO2 T10861123
KPZQ 110735Z AUTO 28005KT 7SM -SN SCT017 OVC024 M09/M13 A3002 RMK AO2 T10861127
KPZQ 110715Z AUTO 27005KT 10SM -SN SCT012 SCT018 OVC024 M09/M13 A3001 RMK AO2 T10861129
KPZQ 110655Z AUTO 27003KT 3SM -SN BKN015 OVC022 M09/M12 A3001 RMK AO2 T10901121
KPZQ 110635Z AUTO 28007KT 3SM -SN BKN013 OVC020 M09/M12 A3000 RMK AO2 T10901124
KPZQ 110615Z AUTO 29004KT 2 1/2SM -SN SCT011 OVC018 M09/M12 A3000 RMK AO2 VIS 1 1/2V5 T10901125
KPZQ 110555Z AUTO 28004KT 4SM -SN BKN015 OVC020 M09/M12 A3000 RMK AO2 T10901123 11066 21094
KPZQ 110535Z AUTO 28005KT 4SM -SN BKN011 OVC019 M09/M12 A3000 RMK AO2 T10911120
KPZQ 110515Z AUTO 27004KT 1 1/4SM -SN BKN009 OVC015 M09/M11 A3001 RMK AO2 T10941115
KPZQ 110455Z AUTO 28006KT 1 3/4SM -SN BKN015 BKN022 OVC029 M09/M12 A3000 RMK AO2 T10921117
KPZQ 110435Z AUTO 28006KT 2SM -SN SCT015 OVC022 M09/M12 A3001 RMK AO2 T10901120
KPZQ 110415Z AUTO 27007KT 5SM -SN OVC022 M09/M13 A3001 RMK AO2 T10861126
KPZQ 110355Z AUTO 28006KT 10SM -SN OVC022 M08/M13 A3000 RMK AO2 T10851127 410281085
KPZQ 110335Z AUTO 28006KT 10SM -SN OVC022 M08/M12 A2998 RMK AO2 T10851124
KPZQ 110315Z AUTO 28006KT 10SM -SN OVC024 M08/M12 A2998 RMK AO2 T10781121
KPZQ 110255Z AUTO 31008KT 10SM OVC024 M08/M12 A2998 RMK AO2 T10781125
KPZQ 110235Z AUTO 33006KT 10SM OVC028 M08/M13 A2998 RMK AO2 T10781130
KPZQ 110215Z AUTO 34012G17KT 10SM OVC028 M08/M13 A2998 RMK AO2 T10781134
KPZQ 110155Z AUTO 34011G15KT 10SM OVC028 M08/M13 A2998 RMK AO2 T10771132
KPZQ 110135Z AUTO 34010G18KT 10SM OVC026 M08/M13 A2997 RMK AO2 T10781129
KPZQ 110115Z AUTO 32012G19KT 10SM -SN OVC024 M07/M12 A2997 RMK AO2 T10751122
KPZQ 110055Z AUTO 31010G15KT 10SM OVC025 M07/M12 A2997 RMK AO2 T10751120
KPZQ 110035Z AUTO 31013G18KT 10SM OVC025 M07/M12 A2996 RMK AO2 T10741119
KPZQ 110015Z AUTO 32011G19KT 10SM OVC023 M07/M12 A2994 RMK AO2 T10711118
KPZQ 102355Z AUTO 31012G22KT 10SM OVC021 M06/M10 A2993 RMK AO2 T10651105 11028 21065
KPZQ 102335Z AUTO 33014G20KT 7SM -SN OVC023 M06/M10 A2991 RMK AO2 T10621101
KPZQ 102315Z AUTO 29009G14KT 10SM -SN BKN027 OVC033 M06/M10 A2990 RMK AO2 T10611105
KPZQ 102255Z AUTO 29010G19KT 270V330 10SM -SN BKN031 OVC037 M06/M11 A2989 RMK AO2 T10601107
KPZQ 102235Z AUTO 31009G21KT 10SM -SN SCT011 BKN028 OVC040 M05/M10 A2988 RMK AO2 T10551098
KPZQ 102215Z AUTO 30007G21KT 2SM -SN SCT008 BKN014 OVC037 M05/M09 A2987 RMK AO2 VIS 1V5 T10551093
KPZQ 102155Z AUTO 30010G17KT 10SM SCT026 BKN034 OVC042 M05/M09 A2985 RMK AO2 T10481093
KPZQ 102135Z AUTO 31010G17KT 10SM -SN BKN026 OVC034 M04/M09 A2985 RMK AO2 T10451090
KPZQ 102115Z AUTO 31010G14KT 10SM SCT026 OVC032 M04/M09 A2984 RMK AO2 T10411090
KPZQ 102055Z AUTO 31010G16KT 10SM BKN026 OVC032 M04/M09 A2983 RMK AO2 T10421089
KPZQ 102035Z AUTO 30009G14KT 10SM BKN021 OVC027 M04/M09 A2982 RMK AO2 T10451088
KPZQ 102015Z AUTO 32009G17KT 10SM OVC021 M04/M08 A2982 RMK AO2 T10441083
KPZQ 101955Z AUTO 34009G16KT 7SM -SN OVC019 M04/M07 A2980 RMK AO2 T10411073
KPZQ 101935Z AUTO 33010G14KT 7SM -SN OVC017 M04/M07 A2979 RMK AO2 T10401070
KPZQ 101915Z AUTO 32010G16KT 4SM -SN BKN017 OVC022 M04/M07 A2979 RMK AO2 T10371066
KPZQ 101855Z AUTO 32010G15KT 4SM -SN OVC015 M03/M06 A2978 RMK AO2 T10331060
KPZQ 101835Z AUTO 30008KT 2 1/2SM -SN BKN015 OVC019 M03/M05 A2977 RMK AO2 T10301052
KPZQ 101815Z AUTO 26008KT 4SM -SN SCT013 BKN027 OVC041 M03/M06 A2976 RMK AO2 T10291056
KPZQ 101755Z AUTO 26010KT 7SM -SN SCT024 BKN043 OVC050 M03/M06 A2976 RMK AO2 T10291058 11029 21060
KPZQ 101735Z AUTO 25010G16KT 3SM -SN SCT035 SCT042 OVC050 M03/M06 A2975 RMK AO2 T10311060
KPZQ 101715Z AUTO 26008G14KT 7SM -SN SCT033 SCT041 OVC050 M03/M06 A2975 RMK AO2 T10341061
KPZQ 101655Z AUTO 24011G16KT 7SM -SN OVC050 M04/M06 A2976 RMK AO2 T10381063
KPZQ 101635Z AUTO 24009G16KT 4SM -SN SCT036 SCT046 OVC060 M04/M06 A2976 RMK AO2 T10401064
KPZQ 101615Z AUTO 24009KT 4SM -SN BKN037 OVC043 M04/M07 A2977 RMK AO2 T10421066
KPZQ 101555Z AUTO 24008KT 5SM -SN OVC037 M04/M07 A2977 RMK AO2 T10451068
KPZQ 101535Z AUTO 24012G17KT 7SM BKN041 BKN047 OVC075 M05/M07 A2977 RMK AO2 T10461070
KPZQ 101515Z AUTO 24012G15KT 7SM SCT048 OVC075 M05/M07 A2977 RMK AO2 T10481071
KPZQ 101455Z AUTO 24010G14KT 10SM OVC075 M05/M07 A2976 RMK AO2 T10501072
KPZQ 101435Z AUTO 24012G15KT 10SM -SN SCT023 BKN075 OVC090 M05/M07 A2977 RMK AO2 T10521074
KPZQ 101415Z AUTO 23011KT 10SM SCT023 BKN065 OVC090 M05/M07 A2976 RMK AO2 T10551075
KPZQ 101355Z AUTO 23010KT 10SM -SN SCT028 OVC070 M06/M08 A2977 RMK AO2 T10571076
KPZQ 101335Z AUTO 24011G15KT 7SM -SN OVC028 M06/M08 A2977 RMK AO2 T10571076
KPZQ 101315Z AUTO 23011KT 7SM -SN OVC028 M06/M08 A2977 RMK AO2 T10571076
KPZQ 101255Z AUTO 24010KT 7SM -SN BKN030 OVC090 M06/M08 A2977 RMK AO2 T10601077
KPZQ 101235Z AUTO 23007KT 4SM -SN OVC030 M06/M08 A2977 RMK AO2 T10601077
KPZQ 101215Z AUTO 24007KT 4SM -SN OVC033 M06/M08 A2977 RMK AO2 T10601077
KPZQ 101155Z AUTO 24007KT 5SM -SN OVC035 M06/M08 A2978 RMK AO2 T10601078 11060 21082
KPZQ 101135Z AUTO 24008KT 4SM -SN BKN035 BKN041 OVC100 M06/M08 A2978 RMK AO2 T10611080
KPZQ 101115Z AUTO 24007KT 5SM -SN SCT039 OVC100 M06/M08 A2978 RMK AO2 T10631081
KPZQ 101055Z AUTO 24009KT 4SM -SN SCT030 SCT037 OVC100 M06/M08 A2978 RMK AO2 T10641082
KPZQ 101035Z AUTO 23006KT 4SM -SN SCT030 BKN041 OVC050 M07/M08 A2978 RMK AO2 T10671085
KPZQ 101015Z AUTO 23005KT 5SM -SN SCT034 BKN043 OVC050 M07/M09 A2978 RMK AO2 T10701087
KPZQ 100955Z AUTO 23004KT 3SM -SN BKN025 OVC035 M07/M09 A2979 RMK AO2 T10711090
KPZQ 100935Z AUTO 22005KT 2 1/2SM -SN BKN023 OVC033 M07/M09 A2979 RMK AO2 T10721091
KPZQ 100915Z AUTO 22006KT 4SM -SN SCT035 BKN044 OVC050 M07/M09 A2980 RMK AO2 T10721095
KPZQ 100855Z AUTO 22005KT 7SM -SN BKN037 OVC047 M07/M09 A2981 RMK AO2 T10731095
KPZQ 100835Z AUTO 23005KT 7SM -SN BKN039 BKN045 OVC055 M07/M10 A2981 RMK AO2 T10731097
KPZQ 100815Z AUTO 24006KT 7SM -SN OVC039 M07/M10 A2982 RMK AO2 T10731100
KPZQ 100755Z AUTO 22006KT 10SM -SN OVC037 M07/M10 A2983 RMK AO2 T10751103
KPZQ 100735Z AUTO 22007KT 10SM OVC037 M07/M10 A2982 RMK AO2 T10751105
KPZQ 100715Z AUTO 22007KT 10SM OVC035 M07/M10 A2983 RMK AO2 T10751105
KPZQ 100655Z AUTO 23005KT 10SM OVC039 M08/M11 A2984 RMK AO2 T10761107
KPZQ 100635Z AUTO 24003KT 10SM SCT036 SCT060 OVC100 M08/M11 A2984 RMK AO2 T10801110
KPZQ 100615Z AUTO 25003KT 10SM BKN036 OVC100 M08/M11 A2985 RMK AO2 T10761110
KPZQ 100555Z AUTO 24005KT 10SM BKN036 OVC110 M08/M11 A2986 RMK AO2 T10771110 11056 21077
KPZQ 100535Z AUTO 24007KT 10SM SCT031 BKN036 OVC120 M08/M11 A2986 RMK AO2 T10761113
KPZQ 100515Z AUTO 25008KT 10SM OVC032 M07/M11 A2987 RMK AO2 T10711113
KPZQ 100455Z AUTO 26006KT 10SM OVC030 M07/M11 A2988 RMK AO2 T10721115
KPZQ 100435Z AUTO 27005KT 10SM OVC028 M07/M11 A2988 RMK AO2 T10711115
KPZQ 100415Z AUTO 27006KT 10SM OVC028 M07/M11 A2988 RMK AO2 T10711115
KPZQ 100355Z AUTO 27007KT 10SM OVC028 M07/M11 A2988 RMK AO2 T10711114 410291116
KPZQ 100335Z AUTO 27007KT 10SM OVC028 M07/M11 A2988 RMK AO2 T10721110
KPZQ 100315Z AUTO 27008KT 10SM OVC026 M07/M11 A2988 RMK AO2 T10721108